createdAt,value
2022-09-30T00:01:20.108Z,85.29
2022-09-30T00:03:48.299Z,85.44
2022-09-30T00:06:15.424Z,85.58
2022-09-30T00:08:42.069Z,85.71
2022-09-30T00:11:13.602Z,85.48
2022-09-30T00:13:40.931Z,85.29
2022-09-30T00:16:09.784Z,85.13
2022-09-30T00:18:37.081Z,84.90
2022-09-30T00:21:04.479Z,85.43
2022-09-30T00:23:30.982Z,85.74
2022-09-30T00:25:59.809Z,85.93
2022-09-30T00:28:27.147Z,85.92
2022-09-30T00:30:54.939Z,85.91
2022-09-30T00:33:21.394Z,86.00
2022-09-30T00:35:47.805Z,85.80
2022-09-30T00:38:14.226Z,85.50
2022-09-30T00:40:41.009Z,85.67
2022-09-30T00:43:20.308Z,85.32
2022-09-30T00:45:59.540Z,84.73
2022-09-30T00:48:33.574Z,85.07
2022-09-30T00:51:02.769Z,85.42
2022-09-30T00:53:34.434Z,85.55
2022-09-30T00:56:13.192Z,85.80
2022-09-30T00:58:46.453Z,86.02
2022-09-30T01:01:14.353Z,85.93
2022-09-30T01:03:45.255Z,85.92
2022-09-30T01:06:11.809Z,85.93
2022-09-30T01:08:39.950Z,85.79
2022-09-30T01:11:08.397Z,85.86
2022-09-30T01:13:37.278Z,85.52
2022-09-30T01:16:24.817Z,85.31
2022-09-30T01:19:11.619Z,85.58
2022-09-30T01:22:06.903Z,85.68
2022-09-30T01:24:54.752Z,85.64
2022-09-30T01:27:56.600Z,85.78
2022-09-30T01:31:07.095Z,85.78
2022-09-30T01:33:42.115Z,85.79
2022-09-30T01:36:31.055Z,86.16
2022-09-30T01:39:22.559Z,86.14
2022-09-30T01:42:07.469Z,85.91
2022-09-30T01:44:47.726Z,85.92
2022-09-30T01:47:34.229Z,85.57
2022-09-30T01:50:24.946Z,85.72
2022-09-30T01:53:24.018Z,85.74
2022-09-30T01:56:01.494Z,85.91
2022-09-30T01:58:38.569Z,85.83
2022-09-30T02:01:10.331Z,86.07
2022-09-30T02:03:59.475Z,86.07
2022-09-30T02:06:32.226Z,85.64
2022-09-30T02:09:05.565Z,85.83
2022-09-30T02:11:37.918Z,85.81
2022-09-30T02:14:28.662Z,85.87
2022-09-30T02:17:03.659Z,85.83
2022-09-30T02:19:45.229Z,85.74
2022-09-30T02:22:26.282Z,85.71
2022-09-30T02:25:01.093Z,85.88
2022-09-30T02:27:41.523Z,86.06
2022-09-30T02:30:12.039Z,86.06
2022-09-30T02:32:50.903Z,85.84
2022-09-30T02:35:23.425Z,84.95
2022-09-30T02:37:56.379Z,85.14
2022-09-30T02:40:39.841Z,85.47
2022-09-30T02:43:07.642Z,85.89
2022-09-30T02:45:46.841Z,85.87
2022-09-30T02:48:35.687Z,86.13
2022-09-30T02:51:07.694Z,86.12
2022-09-30T02:54:00.521Z,86.04
2022-09-30T02:56:42.065Z,85.70
2022-09-30T02:59:08.577Z,85.69
2022-09-30T03:01:35.097Z,85.68
2022-09-30T03:04:07.943Z,85.59
2022-09-30T03:06:36.296Z,85.65
2022-09-30T03:09:03.709Z,85.35
2022-09-30T03:11:31.745Z,85.67
2022-09-30T03:14:25.027Z,85.38
2022-09-30T03:17:18.273Z,86.29
2022-09-30T03:20:12.454Z,86.05
2022-09-30T03:22:51.197Z,86.28
2022-09-30T03:25:32.739Z,85.98
2022-09-30T03:28:40.650Z,85.59
2022-09-30T03:31:27.354Z,85.20
2022-09-30T03:34:13.315Z,85.41
2022-09-30T03:36:42.141Z,85.77
2022-09-30T03:39:16.676Z,85.96
2022-09-30T03:42:07.813Z,85.80
2022-09-30T03:45:05.759Z,85.62
2022-09-30T03:47:36.584Z,85.75
2022-09-30T03:50:09.335Z,85.46
2022-09-30T03:52:36.811Z,85.44
2022-09-30T03:55:06.189Z,85.67
2022-09-30T03:57:32.662Z,85.57
2022-09-30T03:59:59.941Z,85.82
2022-09-30T04:02:27.463Z,85.63
2022-09-30T04:04:53.999Z,85.72
2022-09-30T04:07:20.890Z,86.06
2022-09-30T04:09:47.570Z,86.15
2022-09-30T04:12:14.398Z,86.30
2022-09-30T04:14:40.850Z,86.55
2022-09-30T04:17:07.329Z,86.38
2022-09-30T04:19:40.056Z,86.20
2022-09-30T04:22:10.074Z,86.22
2022-09-30T04:24:36.635Z,85.53
2022-09-30T04:27:03.491Z,85.42
2022-09-30T04:29:30.018Z,86.12
2022-09-30T04:31:57.056Z,86.07
2022-09-30T04:34:23.574Z,86.11
2022-09-30T04:36:50.022Z,86.19
2022-09-30T04:39:16.456Z,85.74
2022-09-30T04:41:43.172Z,85.88
2022-09-30T04:44:09.618Z,85.50
2022-09-30T04:46:36.946Z,85.60
2022-09-30T04:49:08.826Z,86.13
2022-09-30T04:51:36.774Z,85.84
2022-09-30T04:54:03.422Z,85.39
2022-09-30T04:56:30.016Z,85.27
2022-09-30T04:58:56.465Z,85.39
2022-09-30T05:01:22.971Z,86.00
2022-09-30T05:03:50.541Z,85.95
2022-09-30T05:06:17.019Z,86.13
2022-09-30T05:08:45.915Z,86.17
2022-09-30T05:11:18.644Z,86.58
2022-09-30T05:13:45.807Z,87.31
2022-09-30T05:16:12.926Z,87.17
2022-09-30T05:18:42.048Z,87.19
2022-09-30T05:21:08.891Z,87.47
2022-09-30T05:23:35.317Z,87.37
2022-09-30T05:26:03.402Z,86.84
2022-09-30T05:28:33.969Z,86.57
2022-09-30T05:31:03.109Z,86.40
2022-09-30T05:33:30.555Z,87.12
2022-09-30T05:36:07.692Z,87.19
2022-09-30T05:38:35.642Z,87.60
2022-09-30T05:41:14.176Z,88.00
2022-09-30T05:43:41.990Z,88.29
2022-09-30T05:46:08.430Z,88.64
2022-09-30T05:48:35.006Z,88.19
2022-09-30T05:51:02.432Z,87.87
2022-09-30T05:53:31.909Z,88.29
2022-09-30T05:55:59.097Z,87.78
2022-09-30T05:58:25.663Z,87.87
2022-09-30T06:00:52.390Z,88.23
2022-09-30T06:03:18.990Z,88.35
2022-09-30T06:05:45.933Z,88.60
2022-09-30T06:08:16.136Z,88.54
2022-09-30T06:10:44.243Z,88.02
2022-09-30T06:13:11.482Z,88.31
2022-09-30T06:15:41.299Z,88.17
2022-09-30T06:18:08.592Z,87.96
2022-09-30T06:20:34.993Z,88.11
2022-09-30T06:23:01.842Z,88.08
2022-09-30T06:25:29.763Z,88.19
2022-09-30T06:27:57.122Z,88.15
2022-09-30T06:30:24.171Z,88.10
2022-09-30T06:32:51.511Z,88.32
2022-09-30T06:35:19.386Z,88.31
2022-09-30T06:37:45.911Z,88.59
2022-09-30T06:40:12.606Z,88.80
2022-09-30T06:42:39.077Z,88.92
2022-09-30T06:45:06.081Z,89.11
2022-09-30T06:47:33.374Z,89.11
2022-09-30T06:49:59.946Z,89.15
2022-09-30T06:52:27.239Z,89.49
2022-09-30T06:54:56.713Z,89.72
2022-09-30T06:57:25.036Z,89.69
2022-09-30T06:59:51.686Z,89.86
2022-09-30T07:02:18.246Z,90.01
2022-09-30T07:04:44.739Z,90.47
2022-09-30T07:07:12.038Z,90.58
2022-09-30T07:09:38.653Z,90.46
2022-09-30T07:12:06.434Z,90.56
2022-09-30T07:14:33.875Z,90.66
2022-09-30T07:17:03.621Z,90.57
2022-09-30T07:19:30.803Z,90.74
2022-09-30T07:22:18.023Z,90.92
2022-09-30T07:24:44.448Z,90.63
2022-09-30T07:27:13.593Z,90.57
2022-09-30T07:30:04.250Z,90.65
2022-09-30T07:32:28.281Z,90.70
2022-09-30T07:34:54.759Z,90.24
2022-09-30T07:37:21.598Z,90.35
2022-09-30T07:39:48.959Z,90.55
2022-09-30T07:42:22.762Z,90.38
2022-09-30T07:44:53.040Z,90.20
2022-09-30T07:47:20.457Z,89.55
2022-09-30T07:49:47.389Z,89.36
2022-09-30T07:52:14.688Z,89.35
2022-09-30T07:54:46.662Z,89.03
2022-09-30T07:57:16.136Z,88.72
2022-09-30T07:59:42.847Z,88.60
2022-09-30T08:02:15.576Z,88.27
2022-09-30T08:04:44.291Z,87.57
2022-09-30T08:07:11.956Z,87.00
2022-09-30T08:09:38.616Z,86.98
2022-09-30T08:12:05.380Z,86.48
2022-09-30T08:14:32.201Z,86.14
2022-09-30T08:17:00.303Z,86.18
2022-09-30T08:19:29.252Z,85.50
2022-09-30T08:21:56.483Z,85.38
2022-09-30T08:24:24.396Z,85.14
2022-09-30T08:26:52.299Z,84.37
2022-09-30T08:29:35.853Z,84.21
2022-09-30T08:32:05.582Z,83.80
2022-09-30T08:34:35.390Z,83.65
2022-09-30T08:37:07.502Z,83.37
2022-09-30T08:39:35.046Z,83.55
2022-09-30T08:42:36.019Z,83.80
2022-09-30T08:45:29.435Z,83.66
2022-09-30T08:51:10.446Z,84.13
2022-09-30T08:53:41.841Z,83.36
2022-09-30T08:56:12.026Z,83.39
2022-09-30T08:58:44.320Z,82.76
2022-09-30T09:01:19.989Z,82.90
2022-09-30T09:03:47.120Z,82.29
2022-09-30T09:06:30.847Z,82.46
2022-09-30T09:09:16.022Z,82.64
2022-09-30T09:11:45.447Z,82.25
2022-09-30T09:14:52.205Z,83.02
2022-09-30T09:17:54.161Z,83.14
2022-09-30T09:20:36.568Z,83.29
2022-09-30T09:23:05.716Z,83.38
2022-09-30T09:25:32.899Z,83.02
2022-09-30T09:28:06.124Z,83.87
2022-09-30T09:30:43.472Z,82.88
2022-09-30T09:33:21.432Z,81.64
2022-09-30T09:36:00.589Z,81.89
2022-09-30T09:39:04.375Z,82.45
2022-09-30T09:41:48.694Z,81.95
2022-09-30T09:44:30.494Z,81.97
2022-09-30T09:47:05.024Z,80.38
2022-09-30T09:49:37.080Z,80.09
2022-09-30T09:52:12.791Z,80.15
2022-09-30T09:54:48.551Z,80.37
2022-09-30T09:57:17.919Z,79.88
2022-09-30T10:00:30.932Z,79.54
2022-09-30T10:03:00.730Z,80.28
2022-09-30T10:05:30.096Z,79.69
2022-09-30T10:08:31.207Z,80.70
2022-09-30T10:11:00.337Z,79.51
2022-09-30T10:13:40.475Z,79.22
2022-09-30T10:16:07.106Z,78.87
2022-09-30T10:18:36.305Z,78.75
2022-09-30T10:21:06.869Z,78.37
2022-09-30T10:23:37.982Z,78.33
2022-09-30T10:29:00.834Z,78.02
2022-09-30T10:31:33.249Z,77.98
2022-09-30T10:34:04.191Z,77.16
2022-09-30T10:36:36.582Z,78.30
2022-09-30T10:39:07.815Z,77.37
2022-09-30T10:41:38.307Z,77.74
2022-09-30T10:44:13.708Z,76.63
2022-09-30T10:46:41.992Z,76.52
2022-09-30T10:49:24.664Z,77.13
2022-09-30T10:51:51.474Z,76.74
2022-09-30T10:54:39.927Z,76.85
2022-09-30T10:57:14.752Z,76.86
2022-09-30T10:59:42.313Z,75.30
2022-09-30T11:02:39.370Z,75.84
2022-09-30T11:05:15.781Z,75.87
2022-09-30T11:07:45.654Z,74.52
2022-09-30T11:10:34.966Z,76.06
2022-09-30T11:13:23.363Z,76.92
2022-09-30T11:15:55.595Z,73.35
2022-09-30T11:18:41.410Z,75.00
2022-09-30T11:21:17.413Z,75.20
2022-09-30T11:23:48.371Z,73.31
2022-09-30T11:26:23.403Z,73.04
2022-09-30T11:29:23.146Z,73.01
2022-09-30T11:32:04.947Z,73.40
2022-09-30T11:34:53.243Z,71.41
2022-09-30T11:37:38.116Z,71.95
2022-09-30T11:40:28.827Z,71.39
2022-09-30T11:43:41.591Z,70.26
2022-09-30T11:46:14.945Z,70.94
2022-09-30T11:48:50.815Z,72.73
2022-09-30T11:51:42.425Z,69.41
2022-09-30T11:54:36.873Z,70.25
2022-09-30T11:57:27.734Z,67.95
2022-09-30T12:00:13.462Z,68.04
2022-09-30T12:02:50.868Z,67.48
2022-09-30T12:05:29.092Z,70.13
2022-09-30T12:08:23.239Z,68.55
2022-09-30T12:11:02.114Z,68.74
2022-09-30T12:13:37.140Z,67.21
2022-09-30T12:16:06.195Z,68.47
2022-09-30T12:18:47.723Z,67.50
2022-09-30T12:21:25.350Z,66.72
2022-09-30T12:24:17.609Z,67.24
2022-09-30T12:26:45.986Z,68.72
2022-09-30T12:29:38.992Z,67.20
2022-09-30T12:32:11.701Z,66.77
2022-09-30T12:34:53.272Z,64.08
2022-09-30T12:37:50.025Z,66.50
2022-09-30T12:40:28.255Z,66.74
2022-09-30T12:43:39.455Z,66.70
2022-09-30T12:46:48.369Z,67.12
2022-09-30T12:49:23.523Z,67.01
2022-09-30T12:51:55.304Z,66.35
2022-09-30T12:54:31.708Z,67.91
2022-09-30T12:57:03.344Z,67.96
2022-09-30T12:59:33.975Z,68.07
2022-09-30T13:02:03.786Z,69.57
2022-09-30T13:04:36.253Z,68.83
2022-09-30T13:07:02.617Z,69.70
2022-09-30T13:10:22.094Z,69.85
2022-09-30T13:12:52.609Z,71.33
2022-09-30T13:15:31.010Z,70.84
2022-09-30T13:18:19.240Z,70.91
2022-09-30T13:21:04.705Z,71.00
2022-09-30T13:23:47.492Z,70.55
2022-09-30T13:26:29.144Z,70.51
2022-09-30T13:29:01.726Z,70.74
2022-09-30T13:31:29.271Z,70.97
2022-09-30T13:34:01.803Z,71.41
2022-09-30T13:36:52.511Z,71.05
2022-09-30T13:39:34.123Z,71.26
2022-09-30T13:42:00.464Z,71.81
2022-09-30T13:44:54.111Z,72.54
2022-09-30T13:47:45.271Z,70.91
2022-09-30T13:50:29.596Z,68.46
2022-09-30T13:53:01.022Z,65.61
2022-09-30T13:55:34.578Z,64.62
2022-09-30T13:58:35.112Z,63.68
2022-09-30T14:01:56.381Z,63.45
2022-09-30T14:04:51.086Z,64.93
2022-09-30T14:07:42.033Z,60.61
2022-09-30T14:10:39.086Z,63.38
2022-09-30T14:13:25.713Z,62.36
2022-09-30T14:16:23.145Z,61.86
2022-09-30T14:19:23.965Z,59.99
2022-09-30T14:22:02.369Z,59.41
2022-09-30T14:24:37.536Z,58.99
2022-09-30T14:27:32.141Z,59.14
2022-09-30T14:30:12.351Z,59.77
2022-09-30T14:32:44.469Z,63.22
2022-09-30T14:35:17.069Z,61.68
2022-09-30T14:37:48.349Z,61.92
2022-09-30T14:40:27.435Z,62.98
2022-09-30T14:42:55.338Z,61.88
2022-09-30T14:45:29.115Z,62.71
2022-09-30T14:47:59.834Z,61.09
2022-09-30T14:50:33.099Z,60.68
2022-09-30T14:53:00.617Z,63.15
2022-09-30T14:55:34.193Z,64.14
2022-09-30T14:58:28.334Z,62.97
2022-09-30T15:01:07.723Z,64.56
2022-09-30T15:03:36.935Z,62.83
2022-09-30T15:06:05.268Z,64.01
2022-09-30T15:08:31.825Z,63.70
2022-09-30T15:10:58.308Z,63.81
2022-09-30T15:13:29.076Z,63.18
2022-09-30T15:15:55.624Z,63.57
2022-09-30T15:18:42.990Z,63.45
2022-09-30T15:21:15.746Z,65.15
2022-09-30T15:23:47.122Z,64.21
2022-09-30T15:26:15.050Z,62.81
2022-09-30T15:28:41.596Z,63.48
2022-09-30T15:31:20.241Z,63.91
2022-09-30T15:33:46.829Z,63.56
2022-09-30T15:36:19.142Z,64.45
2022-09-30T15:38:51.184Z,62.51
2022-09-30T15:41:18.450Z,64.41
2022-09-30T15:43:51.822Z,63.87
2022-09-30T15:46:27.517Z,63.81
2022-09-30T15:48:56.732Z,64.25
2022-09-30T15:51:27.924Z,64.09
2022-09-30T15:53:58.037Z,66.00
2022-09-30T15:56:30.777Z,66.31
2022-09-30T15:58:59.496Z,65.79
2022-09-30T16:01:33.101Z,65.76
2022-09-30T16:04:03.220Z,64.97
2022-09-30T16:06:37.341Z,63.86
2022-09-30T16:09:08.621Z,63.54
2022-09-30T16:11:41.061Z,62.99
2022-09-30T16:14:17.292Z,63.59
2022-09-30T16:16:50.410Z,62.77
2022-09-30T16:19:18.887Z,63.96
2022-09-30T16:21:52.582Z,64.00
2022-09-30T16:24:25.467Z,64.27
2022-09-30T16:26:54.060Z,64.81
2022-09-30T16:29:21.251Z,65.27
2022-09-30T16:31:50.981Z,65.34
2022-09-30T16:34:22.317Z,65.71
2022-09-30T16:36:49.210Z,66.00
2022-09-30T16:39:16.699Z,66.28
2022-09-30T16:41:43.588Z,66.61
2022-09-30T16:44:10.238Z,66.85
2022-09-30T16:46:37.381Z,67.59
2022-09-30T16:49:14.565Z,67.23
2022-09-30T16:51:41.000Z,67.74
2022-09-30T16:54:07.861Z,67.98
2022-09-30T16:56:35.185Z,68.52
2022-09-30T16:59:02.382Z,68.70
2022-09-30T17:01:29.206Z,68.60
2022-09-30T17:03:57.398Z,69.09
2022-09-30T17:06:32.532Z,69.09
2022-09-30T17:09:01.816Z,68.80
2022-09-30T17:11:33.306Z,69.08
2022-09-30T17:14:04.569Z,68.98
2022-09-30T17:16:32.958Z,69.18
2022-09-30T17:18:59.917Z,69.16
2022-09-30T17:21:26.829Z,69.46
2022-09-30T17:23:54.947Z,69.33
2022-09-30T17:26:21.813Z,69.25
2022-09-30T17:28:48.348Z,69.57
2022-09-30T17:31:15.094Z,69.43
2022-09-30T17:33:42.213Z,69.67
2022-09-30T17:36:11.409Z,69.29
2022-09-30T17:38:38.549Z,69.30
2022-09-30T17:41:25.149Z,69.43
2022-09-30T17:43:51.665Z,69.65
2022-09-30T17:46:22.470Z,69.78
2022-09-30T17:48:50.132Z,69.68
2022-09-30T17:51:16.929Z,69.78
2022-09-30T17:53:44.407Z,70.23
2022-09-30T17:56:20.226Z,70.09
2022-09-30T17:58:48.967Z,70.06
2022-09-30T18:01:17.500Z,70.20
2022-09-30T18:03:45.839Z,70.21
2022-09-30T18:06:14.486Z,70.62
2022-09-30T18:08:41.412Z,70.63
2022-09-30T18:11:08.033Z,70.69
2022-09-30T18:13:34.731Z,70.85
2022-09-30T18:16:05.706Z,71.04
2022-09-30T18:18:34.293Z,71.14
2022-09-30T18:21:00.859Z,71.34
2022-09-30T18:23:27.302Z,71.61
2022-09-30T18:25:56.193Z,71.70
2022-09-30T18:28:22.742Z,71.71
2022-09-30T18:30:49.202Z,71.77
2022-09-30T18:33:17.352Z,71.74
2022-09-30T18:35:43.938Z,71.78
2022-09-30T18:38:12.730Z,71.84
2022-09-30T18:40:42.237Z,71.96
2022-09-30T18:43:12.825Z,72.05
2022-09-30T18:45:40.135Z,72.15
2022-09-30T18:48:07.456Z,72.16
2022-09-30T18:50:34.630Z,72.17
2022-09-30T18:53:09.108Z,72.24
2022-09-30T18:55:39.650Z,72.15
2022-09-30T18:58:06.215Z,72.09
2022-09-30T19:00:33.194Z,72.30
2022-09-30T19:02:59.649Z,72.14
2022-09-30T19:05:26.636Z,72.14
2022-09-30T19:07:53.994Z,72.14
2022-09-30T19:10:20.839Z,72.02
2022-09-30T19:12:47.695Z,71.98
2022-09-30T19:15:17.752Z,71.77
2022-09-30T19:17:45.084Z,71.64
2022-09-30T19:20:13.979Z,71.29
2022-09-30T19:22:40.398Z,71.39
2022-09-30T19:25:11.101Z,70.80
2022-09-30T19:27:39.190Z,70.73
2022-09-30T19:30:06.528Z,70.04
2022-09-30T19:32:36.228Z,70.61
2022-09-30T19:35:06.649Z,70.56
2022-09-30T19:37:34.595Z,70.11
2022-09-30T19:40:11.110Z,70.39
2022-09-30T19:42:42.647Z,70.18
2022-09-30T19:45:09.232Z,70.08
2022-09-30T19:47:36.539Z,69.97
2022-09-30T19:50:03.966Z,70.04
2022-09-30T19:52:30.451Z,70.20
2022-09-30T19:55:07.747Z,69.84
2022-09-30T19:57:42.051Z,69.19
2022-09-30T20:00:11.485Z,69.91
2022-09-30T20:02:38.054Z,69.58
2022-09-30T20:05:05.538Z,69.64
2022-09-30T20:07:32.060Z,69.62
2022-09-30T20:09:58.558Z,69.14
2022-09-30T20:12:25.035Z,69.14
2022-09-30T20:15:10.040Z,69.36
2022-09-30T20:17:36.538Z,69.19
2022-09-30T20:20:21.517Z,69.84
2022-09-30T20:22:47.970Z,69.75
2022-09-30T20:25:14.488Z,69.56
2022-09-30T20:27:42.943Z,69.13
2022-09-30T20:30:10.023Z,69.13
2022-09-30T20:32:36.478Z,69.32
2022-09-30T20:35:03.046Z,68.87
2022-09-30T20:37:29.853Z,69.43
2022-09-30T20:39:57.681Z,69.16
2022-09-30T20:42:28.424Z,69.19
2022-09-30T20:44:59.498Z,69.02
2022-09-30T20:47:25.902Z,69.19
2022-09-30T20:49:52.370Z,68.77
2022-09-30T20:52:18.998Z,69.32
2022-09-30T20:54:45.457Z,69.68
2022-09-30T20:57:11.881Z,69.65
2022-09-30T20:59:38.325Z,69.80
2022-09-30T21:02:05.501Z,69.52
2022-09-30T21:04:33.016Z,69.67
2022-09-30T21:07:00.161Z,69.88
2022-09-30T21:09:26.586Z,70.08
2022-09-30T21:11:53.092Z,70.21
2022-09-30T21:14:19.543Z,70.15
2022-09-30T21:16:46.099Z,70.35
2022-09-30T21:19:12.612Z,70.33
2022-09-30T21:21:39.077Z,70.19
2022-09-30T21:24:05.558Z,70.81
2022-09-30T21:26:31.990Z,70.81
2022-09-30T21:28:59.930Z,71.31
2022-09-30T21:31:27.562Z,71.28
2022-09-30T21:33:58.258Z,71.88
2022-09-30T21:36:25.687Z,72.77
2022-09-30T21:38:52.498Z,74.24
2022-09-30T21:41:20.004Z,74.01
2022-09-30T21:43:47.179Z,74.39
2022-09-30T21:46:15.876Z,75.51
2022-09-30T21:48:42.769Z,76.86
2022-09-30T21:51:10.056Z,77.40
2022-09-30T21:53:38.941Z,78.16
2022-09-30T21:56:07.377Z,78.70
2022-09-30T21:58:34.061Z,79.07
2022-09-30T22:01:02.995Z,80.03
2022-09-30T22:03:35.890Z,81.56
2022-09-30T22:06:02.669Z,81.57
2022-09-30T22:08:36.205Z,82.02
2022-09-30T22:11:06.927Z,82.48
2022-09-30T22:13:34.193Z,83.64
2022-09-30T22:16:06.350Z,83.71
2022-09-30T22:18:33.139Z,84.26
2022-09-30T22:21:14.039Z,84.59
2022-09-30T22:23:41.469Z,84.51
2022-09-30T22:26:09.261Z,85.70
2022-09-30T22:28:37.268Z,86.02
2022-09-30T22:31:31.107Z,86.58
2022-09-30T22:34:21.258Z,86.95
2022-09-30T22:37:06.019Z,86.71
2022-09-30T22:39:32.667Z,87.21
2022-09-30T22:41:59.893Z,88.35
2022-09-30T22:44:29.150Z,88.81
2022-09-30T22:46:57.546Z,88.92
2022-09-30T22:49:24.587Z,89.01
2022-09-30T22:51:54.275Z,89.72
2022-09-30T22:54:20.861Z,89.83
2022-09-30T22:56:50.261Z,90.43
2022-09-30T22:59:18.238Z,90.59
2022-09-30T23:01:45.306Z,91.05
2022-09-30T23:04:14.773Z,91.38
2022-09-30T23:06:41.204Z,91.35
2022-09-30T23:09:07.770Z,91.67
2022-09-30T23:11:35.602Z,92.24
2022-09-30T23:14:03.146Z,92.73
2022-09-30T23:16:29.682Z,93.09
2022-09-30T23:18:56.283Z,93.34
2022-09-30T23:21:22.717Z,93.83
2022-09-30T23:23:49.288Z,93.97
2022-09-30T23:26:18.086Z,94.04
2022-09-30T23:28:45.364Z,94.18
2022-09-30T23:31:15.341Z,94.47
2022-09-30T23:33:51.398Z,94.58
2022-09-30T23:36:20.536Z,94.78
2022-09-30T23:38:47.174Z,95.12
2022-09-30T23:41:14.084Z,95.59
2022-09-30T23:43:45.794Z,95.26
2022-09-30T23:46:12.521Z,95.86
2022-09-30T23:48:39.098Z,95.58
2022-09-30T23:51:06.537Z,96.00
2022-09-30T23:53:34.575Z,96.33
2022-09-30T23:56:04.121Z,96.19
2022-09-30T23:58:32.765Z,96.47
